Time;durP1;ratioP1;P1;durP2;ratioP2;P2;SDS_P1;SDS_P2;PMS_P1;PMS_P2;Temp;Humidity;BMP_temperature;BMP_pressure;BME280_temperature;BME280_humidity;BME280_pressure;Samples;Min_cycle;Max_cycle;Signal;HPM_P1;HPM_P2
2021/04/03 00:01:32;;;;;;;12.13;5.97;;;7.50;1.00;;;;;;5073644;28;20173;-82
2021/04/03 00:03:57;;;;;;;11.77;6.43;;;7.50;1.00;;;;;;5055720;28;20176;-81
2021/04/03 00:06:23;;;;;;;11.97;5.60;;;7.40;1.00;;;;;;5073631;28;20179;-82
2021/04/03 00:08:48;;;;;;;11.60;5.50;;;7.40;1.00;;;;;;5055591;28;20602;-82
2021/04/03 00:11:19;;;;;;;13.10;6.60;;;7.40;1.00;;;;;;5073394;28;20183;-81
2021/04/03 00:13:45;;;;;;;15.60;6.13;;;7.40;1.00;;;;;;5055306;28;20176;-80
2021/04/03 00:16:11;;;;;;;17.37;6.17;;;7.40;1.00;;;;;;5073419;28;20173;-81
2021/04/03 00:18:36;;;;;;;13.77;4.53;;;7.30;1.00;;;;;;5073154;28;20668;-80
2021/04/03 00:21:02;;;;;;;14.70;5.33;;;7.30;1.00;;;;;;5073158;28;20172;-85
2021/04/03 00:23:28;;;;;;;14.10;5.87;;;7.30;1.00;;;;;;5073479;28;20168;-82
2021/04/03 00:25:54;;;;;;;12.40;5.00;;;7.20;1.00;;;;;;5073229;28;20165;-81
2021/04/03 00:28:20;;;;;;;16.17;6.57;;;7.20;1.00;;;;;;5072847;28;20188;-82
2021/04/03 00:30:46;;;;;;;15.93;6.23;;;7.20;1.00;;;;;;5073414;28;20163;-80
2021/04/03 00:33:12;;;;;;;12.57;4.63;;;7.20;1.00;;;;;;5073201;28;20168;-81
2021/04/03 00:35:39;;;;;;;14.87;5.67;;;7.20;1.00;;;;;;5072958;28;20251;-79
2021/04/03 00:38:07;;;;;;;13.30;5.30;;;7.20;1.00;;;;;;5073008;28;20204;-82
2021/04/03 00:40:39;;;;;;;17.87;5.23;;;7.30;1.00;;;;;;5073038;28;20189;-81
2021/04/03 00:43:12;;;;;;;15.37;5.57;;;7.20;1.00;;;;;;5054993;28;20172;-80
2021/04/03 00:45:38;;;;;;;13.60;5.17;;;7.30;1.00;;;;;;5072214;28;20617;-77
2021/04/03 00:48:05;;;;;;;14.27;5.03;;;7.30;1.00;;;;;;5073083;28;20241;-80
2021/04/03 00:50:34;;;;;;;15.07;4.80;;;7.30;1.00;;;;;;5054855;28;20229;-81
2021/04/03 00:53:00;;;;;;;11.70;4.67;;;7.20;1.00;;;;;;5073107;28;20207;-81
2021/04/03 00:55:27;;;;;;;14.70;5.30;;;7.20;1.00;;;;;;5072647;28;20179;-82
2021/04/03 00:57:53;;;;;;;14.73;4.63;;;7.20;1.00;;;;;;5072593;28;20675;-80
2021/04/03 01:00:19;;;;;;;16.30;5.77;;;7.30;1.00;;;;;;5072867;28;20251;-81
2021/04/03 01:02:45;;;;;;;13.30;7.20;;;7.40;1.00;;;;;;5073064;28;20226;-78
2021/04/03 01:05:14;;;;;;;19.20;5.40;;;7.30;1.00;;;;;;5073381;28;20172;-82
2021/04/03 01:07:41;;;;;;;12.33;4.87;;;7.30;1.00;;;;;;5055026;28;20203;-83
2021/04/03 01:10:08;;;;;;;13.53;5.33;;;7.20;1.00;;;;;;5073242;28;20211;-81
2021/04/03 01:13:07;;;;;;;14.33;5.23;;;7.20;1.00;;;;;;5073552;28;20175;-82
2021/04/03 01:15:56;;;;;;;15.00;5.53;;;7.20;1.00;;;;;;5072834;28;20191;-83
2021/04/03 01:18:33;;;;;;;16.20;5.83;;;7.20;1.00;;;;;;5072832;28;20200;-82
2021/04/03 01:21:13;;;;;;;14.67;5.20;;;7.20;1.00;;;;;;5054737;28;20168;-81
2021/04/03 01:24:15;;;;;;;15.97;5.73;;;7.20;1.00;;;;;;5072867;28;20172;-83
2021/04/03 01:26:49;;;;;;;15.83;5.60;;;7.30;1.00;;;;;;5072594;28;20172;-82
2021/04/03 01:29:34;;;;;;;16.17;6.33;;;7.20;99.90;;;;;;5072564;28;20555;-81
2021/04/03 01:32:04;;;;;;;14.97;5.60;;;7.20;99.90;;;;;;5072689;28;20165;-81
2021/04/03 01:34:32;;;;;;;14.57;5.00;;;7.20;99.90;;;;;;5054572;28;20183;-82
2021/04/03 01:37:02;;;;;;;11.70;4.83;;;7.20;1.00;;;;;;5072586;28;20168;-82
2021/04/03 01:39:30;;;;;;;16.23;3.80;;;7.20;99.90;;;;;;5072668;28;20177;-81
2021/04/03 01:42:01;;;;;;;14.57;4.10;;;7.20;1.00;;;;;;5072198;28;20191;-81
2021/04/03 01:44:34;;;;;;;16.37;4.30;;;7.20;99.90;;;;;;5054605;28;20637;-82
2021/04/03 01:47:01;;;;;;;14.93;4.07;;;7.20;99.90;;;;;;5054616;28;20207;-82
2021/04/03 01:49:27;;;;;;;14.67;4.90;;;7.20;99.90;;;;;;5072593;28;20168;-80
2021/04/03 01:51:53;;;;;;;17.60;4.97;;;7.30;1.00;;;;;;5072594;28;20255;-82
2021/04/03 01:54:22;;;;;;;8.90;3.50;;;7.30;1.00;;;;;;5072584;28;20566;-79
2021/04/03 01:56:49;;;;;;;14.77;4.43;;;7.20;1.00;;;;;;5074991;28;20176;-83
2021/04/03 01:59:16;;;;;;;15.93;3.97;;;7.40;99.90;;;;;;5076129;28;20211;-82
2021/04/03 02:01:43;;;;;;;15.37;3.80;;;7.20;1.00;;;;;;5076074;28;20168;-81
2021/04/03 02:04:13;;;;;;;14.53;4.30;;;7.20;1.00;;;;;;5076163;28;20260;-81
2021/04/03 02:06:41;;;;;;;7.30;2.70;;;7.20;12.30;;;;;;5076012;28;20184;-80
2021/04/03 02:09:09;;;;;;;11.17;3.30;;;7.20;99.90;;;;;;5076025;28;20176;-81
2021/04/03 02:11:37;;;;;;;7.67;2.70;;;7.20;1.00;;;;;;5075746;28;20196;-81
2021/04/03 02:14:05;;;;;;;7.87;2.67;;;7.20;1.00;;;;;;5058066;28;20172;-82
2021/04/03 02:16:33;;;;;;;9.17;2.40;;;7.20;1.00;;;;;;5075933;28;20528;-81
2021/04/03 02:19:03;;;;;;;9.13;3.13;;;7.20;1.00;;;;;;5075812;28;20212;-81
2021/04/03 02:21:29;;;;;;;9.03;2.73;;;7.30;1.00;;;;;;5076105;28;20176;-82
2021/04/03 02:23:56;;;;;;;10.63;2.60;;;7.20;1.00;;;;;;5075501;28;20183;-82
2021/04/03 02:26:22;;;;;;;8.90;2.27;;;7.20;1.00;;;;;;5057757;28;20179;-81
2021/04/03 02:28:49;;;;;;;6.40;1.97;;;7.20;1.00;;;;;;5075464;28;20184;-82
2021/04/03 02:31:15;;;;;;;10.13;3.97;;;7.10;99.90;;;;;;5075676;28;20208;-83
2021/04/03 02:33:41;;;;;;;7.63;2.30;;;7.10;99.90;;;;;;5075538;28;20196;-81
2021/04/03 02:36:07;;;;;;;9.27;2.57;;;7.10;99.90;;;;;;5075750;28;20606;-81
2021/04/03 02:38:32;;;;;;;14.00;3.47;;;7.10;99.90;;;;;;5074928;28;20572;-82
2021/04/03 02:40:58;;;;;;;12.00;3.70;;;7.10;99.90;;;;;;5075123;28;20188;-81
2021/04/03 02:43:40;;;;;;;13.63;3.23;;;7.20;99.90;;;;;;5057545;28;20275;-80
2021/04/03 02:46:13;;;;;;;12.50;2.90;;;7.20;99.90;;;;;;5075356;28;20172;-82
2021/04/03 02:48:46;;;;;;;8.10;2.53;;;7.20;1.00;;;;;;5075324;28;20252;-78
2021/04/03 02:51:14;;;;;;;9.63;2.73;;;7.20;99.90;;;;;;5075167;28;20198;-78
2021/04/03 02:53:40;;;;;;;12.30;2.80;;;7.10;99.90;;;;;;5074873;28;20176;-81
2021/04/03 02:56:07;;;;;;;7.87;2.60;;;7.10;99.90;;;;;;5075319;28;20218;-80
2021/04/03 02:58:36;;;;;;;12.57;3.20;;;7.10;99.90;;;;;;5074985;28;20215;-81
2021/04/03 03:01:02;;;;;;;11.57;3.23;;;7.10;1.00;;;;;;5075076;28;20286;-82
2021/04/03 03:03:32;;;;;;;12.67;4.03;;;7.10;1.00;;;;;;5057161;28;20641;-83
2021/04/03 03:05:58;;;;;;;13.47;3.17;;;7.10;1.00;;;;;;5075038;28;20211;-80
2021/04/03 03:08:26;;;;;;;11.13;2.90;;;7.20;1.00;;;;;;5073499;28;20195;-80
2021/04/03 03:10:54;;;;;;;10.53;3.13;;;7.20;99.90;;;;;;5057061;28;20175;-84
2021/04/03 03:13:20;;;;;;;14.03;3.33;;;7.30;1.00;;;;;;5074829;28;20249;-81
2021/04/03 03:15:46;;;;;;;7.83;2.50;;;7.10;45.70;;;;;;5074838;28;20700;-81
2021/04/03 03:18:13;;;;;;;9.50;2.93;;;7.10;99.90;;;;;;5074512;28;20311;-79
2021/04/03 03:20:39;;;;;;;8.37;2.50;;;7.00;99.90;;;;;;5075143;28;20172;-79
2021/04/03 03:23:05;;;;;;;9.83;2.50;;;7.00;1.00;;;;;;5074752;28;20650;-81
2021/04/03 03:25:31;;;;;;;6.67;2.40;;;6.90;1.00;;;;;;5074636;28;20191;-82
2021/04/03 03:27:59;;;;;;;7.50;2.03;;;6.90;1.00;;;;;;5074552;28;20188;-81
2021/04/03 03:30:26;;;;;;;7.93;2.60;;;7.00;1.00;;;;;;5056472;28;20171;-81
2021/04/03 03:32:52;;;;;;;12.03;3.23;;;7.00;1.00;;;;;;5074527;28;20223;-80
2021/04/03 03:35:19;;;;;;;12.43;2.27;;;7.00;1.00;;;;;;5074116;28;20489;-81
2021/04/03 03:37:46;;;;;;;9.97;2.87;;;6.90;1.00;;;;;;5073863;28;20203;-79
2021/04/03 03:40:15;;;;;;;8.50;2.17;;;7.00;1.00;;;;;;5074425;28;20195;-82
2021/04/03 03:42:41;;;;;;;12.23;3.07;;;7.00;1.00;;;;;;5074154;28;20212;-81
2021/04/03 03:45:11;;;;;;;11.80;2.87;;;7.00;1.00;;;;;;5074154;28;20259;-79
2021/04/03 03:47:36;;;;;;;9.30;2.77;;;7.00;1.00;;;;;;5056155;28;20172;-82
2021/04/03 03:50:04;;;;;;;11.83;2.33;;;7.00;1.00;;;;;;5055843;28;20262;-81
2021/04/03 03:52:30;;;;;;;10.53;2.77;;;7.00;1.00;;;;;;5073615;28;20208;-81
2021/04/03 03:54:55;;;;;;;15.00;2.63;;;7.00;1.00;;;;;;5073781;28;20196;-82
2021/04/03 03:57:21;;;;;;;17.03;3.07;;;7.00;1.00;;;;;;5073976;28;20290;-82
2021/04/03 03:59:47;;;;;;;10.73;3.13;;;7.10;43.00;;;;;;5073669;28;20661;-80
2021/04/03 04:02:12;;;;;;;13.30;2.83;;;7.00;1.00;;;;;;5073640;28;20745;-82
2021/04/03 04:04:38;;;;;;;9.43;2.93;;;7.10;23.20;;;;;;5073629;28;20169;-82
2021/04/03 04:07:04;;;;;;;14.40;3.40;;;7.00;96.60;;;;;;5073519;28;20259;-80
2021/04/03 04:09:30;;;;;;;11.93;3.03;;;7.00;99.90;;;;;;5055516;28;20265;-81
2021/04/03 04:11:56;;;;;;;9.90;2.60;;;7.00;99.90;;;;;;5073643;28;20172;-81
2021/04/03 04:14:22;;;;;;;6.83;2.63;;;7.00;99.90;;;;;;5073348;28;20168;-83
2021/04/03 04:16:47;;;;;;;11.73;3.67;;;6.90;99.90;;;;;;5073303;28;20187;-81
2021/04/03 04:19:13;;;;;;;9.47;3.43;;;7.00;99.90;;;;;;5073416;28;20208;-81
2021/04/03 04:21:39;;;;;;;18.43;3.30;;;7.00;99.90;;;;;;5073127;28;20542;-83
2021/04/03 04:24:04;;;;;;;15.80;3.57;;;7.00;99.90;;;;;;5073430;28;20733;-81
2021/04/03 04:26:30;;;;;;;10.97;4.23;;;7.00;99.90;;;;;;5073051;28;20206;-83
2021/04/03 04:28:56;;;;;;;10.80;4.00;;;7.00;99.90;;;;;;5073329;28;20190;-80
2021/04/03 04:31:22;;;;;;;16.37;3.20;;;7.10;99.90;;;;;;5055626;28;20263;-82
2021/04/03 04:33:47;;;;;;;12.53;3.50;;;7.00;99.90;;;;;;5073413;28;20187;-82
2021/04/03 04:36:14;;;;;;;13.73;3.53;;;7.00;99.90;;;;;;5072896;28;20164;-83
2021/04/03 04:38:39;;;;;;;9.90;3.63;;;7.20;99.90;;;;;;5072889;28;20686;-83
2021/04/03 04:41:05;;;;;;;12.17;3.47;;;7.10;99.90;;;;;;5055109;28;20189;-82
2021/04/03 04:43:30;;;;;;;15.60;4.13;;;7.00;1.00;;;;;;5073309;28;20172;-81
2021/04/03 04:45:56;;;;;;;12.90;3.80;;;7.00;1.00;;;;;;5055147;28;20655;-83
2021/04/03 04:48:22;;;;;;;12.90;3.70;;;7.20;1.00;;;;;;5073230;28;20176;-79
2021/04/03 04:50:47;;;;;;;13.70;4.57;;;7.10;1.00;;;;;;5072353;28;20204;-78
2021/04/03 04:53:13;;;;;;;9.90;3.37;;;7.10;1.00;;;;;;5073278;28;20176;-83
2021/04/03 04:55:38;;;;;;;13.63;4.13;;;7.10;1.00;;;;;;5074017;28;20213;-84
2021/04/03 04:58:04;;;;;;;12.87;4.37;;;7.10;1.00;;;;;;5073279;28;20635;-82
2021/04/03 05:00:30;;;;;;;18.70;4.53;;;7.10;1.00;;;;;;5072733;28;20173;-81
2021/04/03 05:02:56;;;;;;;15.27;3.70;;;7.10;1.00;;;;;;5073058;28;20205;-82
2021/04/03 05:05:21;;;;;;;7.73;3.37;;;7.10;1.00;;;;;;5072562;28;20183;-83
2021/04/03 05:07:47;;;;;;;17.73;3.77;;;7.10;1.00;;;;;;5072811;28;20183;-80
2021/04/03 05:10:13;;;;;;;19.27;3.93;;;7.00;10.10;;;;;;5073095;28;20696;-81
2021/04/03 05:12:39;;;;;;;13.67;4.60;;;7.00;99.90;;;;;;5072960;28;20173;-82
2021/04/03 05:15:06;;;;;;;12.13;3.30;;;7.00;99.90;;;;;;5072850;28;20298;-83
2021/04/03 05:17:31;;;;;;;14.63;4.00;;;7.10;99.90;;;;;;5072793;28;20195;-82
2021/04/03 05:19:57;;;;;;;14.33;3.67;;;7.10;99.90;;;;;;5072281;28;20195;-80
2021/04/03 05:22:23;;;;;;;15.87;4.47;;;7.10;99.90;;;;;;5072850;28;20176;-80
2021/04/03 05:24:48;;;;;;;15.50;4.97;;;7.30;99.90;;;;;;5072788;28;20239;-82
2021/04/03 05:27:14;;;;;;;15.50;3.60;;;7.10;99.90;;;;;;5072212;28;20217;-83
2021/04/03 05:29:40;;;;;;;15.07;4.10;;;7.10;57.50;;;;;;5072359;28;20169;-79
2021/04/03 05:32:06;;;;;;;15.27;3.53;;;7.10;99.90;;;;;;5076140;28;20560;-81
2021/04/03 05:34:32;;;;;;;16.23;4.10;;;7.20;99.90;;;;;;5076735;28;20172;-82
2021/04/03 05:36:58;;;;;;;13.43;4.13;;;7.20;1.00;;;;;;5076264;28;20192;-82
2021/04/03 05:39:24;;;;;;;14.57;3.77;;;7.10;1.00;;;;;;5076462;28;20576;-81
2021/04/03 05:41:49;;;;;;;12.93;3.50;;;7.10;99.90;;;;;;5076319;28;20249;-84
2021/04/03 05:44:16;;;;;;;14.80;3.57;;;7.10;99.90;;;;;;5076348;28;20164;-84
2021/04/03 05:46:45;;;;;;;18.13;4.27;;;7.10;99.90;;;;;;5076345;28;20176;-82
2021/04/03 05:49:15;;;;;;;14.83;3.50;;;7.10;95.00;;;;;;5076434;28;20173;-82
2021/04/03 05:51:40;;;;;;;15.00;3.17;;;7.10;6.10;;;;;;5058156;28;20177;-81
2021/04/03 05:54:06;;;;;;;12.93;3.17;;;7.10;1.00;;;;;;5076223;28;20184;-82
2021/04/03 05:56:32;;;;;;;12.20;3.47;;;7.00;1.00;;;;;;5075963;28;20612;-83
2021/04/03 05:58:59;;;;;;;14.40;3.20;;;7.10;1.00;;;;;;5075991;28;20216;-80
2021/04/03 06:01:24;;;;;;;10.87;3.37;;;7.20;1.00;;;;;;5057893;28;20180;-82
2021/04/03 06:03:50;;;;;;;13.53;3.97;;;7.20;1.00;;;;;;5075652;28;20224;-81
2021/04/03 06:06:16;;;;;;;15.53;3.80;;;7.10;1.00;;;;;;5076179;28;20168;-82
2021/04/03 06:08:42;;;;;;;12.23;3.30;;;7.20;1.00;;;;;;5057877;28;20180;-78
2021/04/03 06:11:07;;;;;;;11.70;3.93;;;7.20;1.00;;;;;;5075734;28;20176;-82
2021/04/03 06:13:33;;;;;;;11.37;3.00;;;7.30;1.00;;;;;;5075392;28;20237;-83
2021/04/03 06:15:58;;;;;;;16.73;3.00;;;7.30;1.00;;;;;;5075370;28;20514;-80
2021/04/03 06:18:24;;;;;;;15.13;4.57;;;7.30;1.00;;;;;;5075375;28;20208;-82
2021/04/03 06:20:49;;;;;;;13.20;3.10;;;7.30;1.00;;;;;;5075587;28;20174;-83
2021/04/03 06:23:30;;;;;;;11.20;2.57;;;7.30;1.00;;;;;;5057495;28;20580;-83
2021/04/03 06:25:58;;;;;;;12.03;2.83;;;7.30;1.00;;;;;;5075519;28;20174;-83
2021/04/03 06:28:28;;;;;;;11.83;3.63;;;7.30;1.00;;;;;;5075154;28;20207;-80
2021/04/03 06:30:59;;;;;;;15.00;3.83;;;7.30;1.00;;;;;;5057110;28;20206;-81
2021/04/03 06:33:24;;;;;;;14.30;3.37;;;7.20;1.00;;;;;;5075394;28;20168;-81
2021/04/03 06:36:09;;;;;;;12.63;3.13;;;7.20;1.00;;;;;;5057191;28;20175;-80
2021/04/03 06:38:36;;;;;;;16.77;3.90;;;7.20;1.00;;;;;;5075229;28;20203;-83
2021/04/03 06:41:24;;;;;;;13.43;3.43;;;7.20;1.00;;;;;;5057358;28;20192;-81
2021/04/03 06:44:10;;;;;;;15.10;3.77;;;7.20;1.00;;;;;;5056097;28;20259;-81
2021/04/03 06:46:37;;;;;;;12.23;2.90;;;7.30;1.00;;;;;;5057059;28;20219;-80
2021/04/03 06:49:04;;;;;;;9.30;2.53;;;7.30;1.00;;;;;;5075016;28;20221;-79
2021/04/03 06:51:30;;;;;;;13.27;3.10;;;7.30;1.00;;;;;;5074813;28;20176;-82
2021/04/03 06:53:57;;;;;;;14.13;3.83;;;7.40;1.00;;;;;;5074961;28;20640;-82
2021/04/03 06:56:25;;;;;;;11.97;3.00;;;7.40;1.00;;;;;;5075662;28;20171;-83
2021/04/03 06:59:05;;;;;;;14.20;3.23;;;7.40;1.00;;;;;;5076615;28;20207;-84
2021/04/03 07:01:56;;;;;;;16.63;3.13;;;7.40;1.00;;;;;;5057567;28;20183;-84
2021/04/03 07:04:40;;;;;;;19.27;4.87;;;7.50;1.00;;;;;;5075101;28;20244;-81
2021/04/03 07:07:07;;;;;;;10.70;3.13;;;7.50;1.00;;;;;;5057255;28;20191;-85
2021/04/03 07:09:34;;;;;;;17.33;3.40;;;7.50;1.00;;;;;;5057202;28;20314;-83
2021/04/03 07:12:00;;;;;;;17.00;3.63;;;7.50;1.00;;;;;;5057178;28;20648;-81
2021/04/03 07:14:36;;;;;;;10.57;2.77;;;7.50;1.00;;;;;;5074954;28;20169;-83
2021/04/03 07:17:03;;;;;;;14.97;3.67;;;7.50;1.00;;;;;;5074351;28;20183;-82
2021/04/03 07:19:30;;;;;;;10.50;3.00;;;7.50;1.00;;;;;;5056105;28;20176;-81
2021/04/03 07:21:56;;;;;;;20.97;3.47;;;7.50;1.00;;;;;;5074915;28;20168;-81
2021/04/03 07:24:22;;;;;;;13.73;3.80;;;7.50;1.00;;;;;;5056179;28;20265;-85
2021/04/03 07:26:50;;;;;;;13.90;2.97;;;7.60;1.00;;;;;;5074378;28;20168;-84
2021/04/03 07:29:44;;;;;;;11.80;3.00;;;7.60;1.00;;;;;;5073555;28;20601;-84
2021/04/03 07:32:38;;;;;;;13.47;3.63;;;7.70;1.00;;;;;;5073683;28;20172;-83
2021/04/03 07:35:22;;;;;;;16.70;3.83;;;7.70;1.00;;;;;;5056127;28;20179;-81
2021/04/03 07:37:49;;;;;;;13.57;3.30;;;7.70;1.00;;;;;;5073935;28;20287;-82
2021/04/03 07:40:36;;;;;;;17.97;4.07;;;7.60;1.00;;;;;;5055743;28;20175;-83
2021/04/03 07:43:02;;;;;;;17.73;3.80;;;7.70;1.00;;;;;;5073482;28;20206;-83
2021/04/03 07:45:31;;;;;;;14.67;3.93;;;7.70;1.00;;;;;;5073884;28;20176;-84
2021/04/03 07:47:58;;;;;;;15.23;4.27;;;7.80;1.00;;;;;;5055556;28;20199;-85
2021/04/03 07:50:49;;;;;;;15.87;3.70;;;7.70;1.00;;;;;;5073746;28;20172;-85
2021/04/03 07:53:42;;;;;;;11.73;3.53;;;7.70;1.00;;;;;;5055141;28;20180;-83
2021/04/03 07:56:10;;;;;;;10.53;2.97;;;7.80;1.00;;;;;;5073405;28;20632;-83
2021/04/03 07:59:02;;;;;;;15.60;3.63;;;7.90;1.00;;;;;;5055223;28;20300;-81
2021/04/03 08:01:29;;;;;;;10.97;3.53;;;7.80;1.00;;;;;;5068758;28;20184;-83
2021/04/03 08:04:03;;;;;;;15.33;3.90;;;7.80;1.00;;;;;;5055712;28;20184;-83
2021/04/03 08:06:47;;;;;;;17.00;4.70;;;7.80;1.00;;;;;;5073680;28;20164;-85
2021/04/03 08:09:17;;;;;;;15.77;3.40;;;7.80;1.00;;;;;;5073493;28;20585;-85
2021/04/03 08:11:46;;;;;;;9.57;3.20;;;7.90;1.00;;;;;;5055786;28;20179;-85
2021/04/03 08:14:13;;;;;;;10.87;3.43;;;8.00;1.00;;;;;;5073542;28;20175;-83
2021/04/03 08:16:40;;;;;;;15.27;3.87;;;8.10;1.00;;;;;;5073320;28;20466;-84
2021/04/03 08:19:07;;;;;;;20.23;4.50;;;8.10;1.00;;;;;;5073295;28;20257;-86
2021/04/03 08:21:47;;;;;;;15.67;3.23;;;8.10;1.00;;;;;;5055451;28;20203;-84
2021/04/03 08:24:14;;;;;;;16.30;4.27;;;8.00;1.00;;;;;;5055738;28;20231;-83
2021/04/03 08:26:41;;;;;;;12.73;3.30;;;8.00;1.00;;;;;;5065883;28;20273;-85
2021/04/03 08:29:08;;;;;;;20.57;4.07;;;8.10;1.00;;;;;;5063315;28;20192;-84
2021/04/03 08:31:35;;;;;;;18.17;4.40;;;8.10;1.00;;;;;;5073561;28;20628;-85
2021/04/03 08:34:04;;;;;;;13.63;4.37;;;8.20;1.00;;;;;;5056234;28;20172;-81
2021/04/03 08:36:33;;;;;;;15.77;3.57;;;8.20;1.00;;;;;;5083941;28;20176;-85
2021/04/03 08:39:10;;;;;;;17.30;4.40;;;8.10;1.00;;;;;;5072687;28;20238;-87
2021/04/03 08:41:37;;;;;;;14.60;3.73;;;7.90;1.00;;;;;;5083186;28;20204;-81
2021/04/03 08:44:21;;;;;;;13.07;3.80;;;8.00;1.00;;;;;;5089068;28;20175;-80
2021/04/03 08:46:51;;;;;;;17.30;3.77;;;8.10;1.00;;;;;;5078701;28;20176;-85
2021/04/03 08:49:25;;;;;;;16.93;5.70;;;8.20;1.00;;;;;;5089570;28;20176;-82
2021/04/03 08:51:51;;;;;;;15.63;3.33;;;8.20;1.00;;;;;;5071245;28;20270;-81
2021/04/03 08:54:19;;;;;;;12.20;3.20;;;8.30;1.00;;;;;;5055765;28;20830;-85
2021/04/03 08:56:45;;;;;;;14.00;3.67;;;8.30;1.00;;;;;;5073225;28;20164;-85
2021/04/03 08:59:16;;;;;;;16.93;3.97;;;8.20;1.00;;;;;;5055267;28;20219;-85
2021/04/03 09:01:45;;;;;;;17.53;3.93;;;8.20;1.00;;;;;;5073610;28;20177;-81
2021/04/03 09:04:12;;;;;;;13.60;3.53;;;8.30;1.00;;;;;;5072649;28;20536;-85
2021/04/03 09:06:52;;;;;;;14.07;5.03;;;8.40;1.00;;;;;;5071903;28;20636;-84
2021/04/03 09:09:19;;;;;;;16.77;4.63;;;8.60;1.00;;;;;;5077002;28;20247;-81
2021/04/03 09:11:54;;;;;;;17.20;4.97;;;8.50;1.00;;;;;;5076199;28;20164;-80
2021/04/03 09:14:49;;;;;;;12.87;3.53;;;8.50;1.00;;;;;;5058084;28;20168;-86
2021/04/03 09:17:17;;;;;;;17.37;4.73;;;8.50;1.00;;;;;;5073084;28;20164;-83
2021/04/03 09:19:43;;;;;;;15.07;4.37;;;8.50;1.00;;;;;;5073447;28;20172;-81
2021/04/03 09:22:13;;;;;;;21.90;5.97;;;8.40;1.40;;;;;;5072876;28;20183;-78
2021/04/03 09:24:55;;;;;;;16.97;4.90;;;8.40;1.00;;;;;;5054463;28;20180;-85
2021/04/03 09:27:22;;;;;;;16.10;3.50;;;8.50;10.40;;;;;;5072787;28;20190;-83
2021/04/03 09:30:04;;;;;;;11.47;3.10;;;8.60;1.00;;;;;;5055009;28;20639;-81
2021/04/03 09:32:45;;;;;;;16.57;3.50;;;8.50;1.00;;;;;;5072131;28;20170;-81
2021/04/03 09:35:13;;;;;;;15.10;3.73;;;8.50;1.00;;;;;;5072328;28;20164;-85
2021/04/03 09:37:39;;;;;;;12.03;3.93;;;8.50;1.00;;;;;;5072020;28;20215;-83
2021/04/03 09:40:07;;;;;;;15.33;4.23;;;8.50;1.00;;;;;;5071644;28;20240;-81
2021/04/03 09:42:33;;;;;;;16.70;5.17;;;8.60;1.00;;;;;;5053758;28;20214;-80
2021/04/03 09:45:02;;;;;;;15.43;3.77;;;8.70;1.00;;;;;;5054415;28;20173;-84
2021/04/03 09:47:28;;;;;;;11.93;4.40;;;8.70;1.00;;;;;;5071976;28;20208;-85
2021/04/03 09:49:54;;;;;;;17.17;5.13;;;8.80;1.00;;;;;;5071674;28;20218;-83
2021/04/03 09:52:20;;;;;;;17.80;4.87;;;8.90;1.00;;;;;;5071423;28;20218;-84
2021/04/03 09:54:47;;;;;;;15.73;4.00;;;9.00;1.00;;;;;;5053871;28;20299;-85
2021/04/03 09:57:14;;;;;;;14.47;3.97;;;9.00;99.90;;;;;;5054067;28;20644;-85
2021/04/03 09:59:41;;;;;;;12.77;3.53;;;9.10;99.90;;;;;;5054897;28;20187;-85
2021/04/03 10:02:07;;;;;;;12.57;4.90;;;9.20;99.90;;;;;;5072540;28;20164;-85
2021/04/03 10:04:33;;;;;;;12.33;3.70;;;9.30;99.90;;;;;;5054449;28;20203;-85
2021/04/03 10:06:59;;;;;;;13.53;3.43;;;9.30;51.90;;;;;;5071512;28;20243;-85
2021/04/03 10:09:25;;;;;;;15.77;4.60;;;9.30;99.90;;;;;;5071108;28;20171;-83
2021/04/03 10:11:52;;;;;;;16.93;5.00;;;9.20;99.90;;;;;;5071201;28;20204;-84
2021/04/03 10:14:18;;;;;;;16.23;4.47;;;9.20;99.90;;;;;;5070830;28;20199;-85
2021/04/03 10:16:43;;;;;;;16.27;5.03;;;9.10;99.90;;;;;;5071122;28;20265;-82
2021/04/03 10:19:09;;;;;;;14.03;5.10;;;9.10;99.90;;;;;;5075467;28;20567;-87
2021/04/03 10:21:36;;;;;;;15.77;5.27;;;9.10;99.90;;;;;;5075696;28;20202;-81
2021/04/03 10:24:02;;;;;;;13.33;4.57;;;9.10;99.90;;;;;;5057411;28;20212;-87
2021/04/03 10:26:28;;;;;;;15.77;3.87;;;9.20;99.90;;;;;;5075351;28;20325;-81
2021/04/03 10:28:54;;;;;;;17.53;4.53;;;9.20;99.50;;;;;;5075239;28;20180;-81
2021/04/03 10:31:20;;;;;;;18.77;4.60;;;9.40;99.00;;;;;;5057137;28;20176;-86
2021/04/03 10:33:45;;;;;;;14.93;5.30;;;9.40;99.90;;;;;;5074678;28;20187;-81
2021/04/03 10:36:12;;;;;;;15.20;5.07;;;9.60;99.90;;;;;;5077699;28;20172;-84
2021/04/03 10:38:38;;;;;;;16.23;4.23;;;9.70;40.60;;;;;;5074819;28;20212;-83
2021/04/03 10:41:05;;;;;;;17.13;4.10;;;9.60;39.00;;;;;;5074742;28;20184;-85
2021/04/03 10:43:31;;;;;;;12.10;4.10;;;9.60;49.20;;;;;;5056449;28;20253;-84
2021/04/03 10:45:57;;;;;;;10.20;4.27;;;9.50;27.40;;;;;;5075225;28;20168;-82
2021/04/03 10:48:26;;;;;;;13.10;5.10;;;9.40;99.90;;;;;;5074663;28;20663;-84
2021/04/03 10:50:51;;;;;;;13.77;4.77;;;9.40;99.90;;;;;;5074728;28;20226;-84
2021/04/03 10:53:17;;;;;;;14.07;5.00;;;9.60;79.40;;;;;;5056390;28;20184;-85
2021/04/03 10:55:42;;;;;;;21.37;5.00;;;9.70;1.00;;;;;;5056645;28;20636;-86
2021/04/03 10:58:08;;;;;;;15.93;5.27;;;9.70;36.70;;;;;;5056555;28;20211;-82
2021/04/03 11:00:34;;;;;;;15.43;4.20;;;9.90;5.40;;;;;;5056893;28;20172;-84
2021/04/03 11:03:02;;;;;;;12.90;4.60;;;10.10;1.00;;;;;;5073681;28;20175;-81
2021/04/03 11:05:27;;;;;;;14.33;3.83;;;10.00;1.00;;;;;;5056369;28;20644;-83
2021/04/03 11:07:53;;;;;;;13.80;3.93;;;10.10;1.00;;;;;;5074308;28;20168;-82
2021/04/03 11:10:19;;;;;;;9.60;4.00;;;9.90;1.00;;;;;;5074145;28;20161;-83
2021/04/03 11:12:44;;;;;;;18.43;4.53;;;9.90;1.00;;;;;;5074451;28;20251;-85
2021/04/03 11:15:11;;;;;;;13.93;5.00;;;10.00;1.00;;;;;;5056296;28;20259;-83
2021/04/03 11:17:37;;;;;;;9.73;3.83;;;10.10;1.00;;;;;;5074315;28;20230;-84
2021/04/03 11:20:09;;;;;;;11.30;3.50;;;10.20;1.00;;;;;;5056067;28;20368;-84
2021/04/03 11:22:35;;;;;;;9.57;3.40;;;10.20;1.00;;;;;;5055791;28;20659;-84
2021/04/03 11:25:02;;;;;;;14.40;3.50;;;10.30;1.00;;;;;;5074312;28;20612;-84
2021/04/03 11:27:27;;;;;;;10.77;3.70;;;10.20;1.00;;;;;;5055514;28;20203;-82
2021/04/03 11:29:53;;;;;;;12.37;3.83;;;10.30;1.00;;;;;;5073843;28;20169;-85
2021/04/03 11:32:19;;;;;;;13.93;3.67;;;10.50;1.00;;;;;;5074324;28;20202;-84
2021/04/03 11:34:44;;;;;;;13.97;4.17;;;10.60;1.00;;;;;;5073507;28;20177;-85
2021/04/03 11:37:10;;;;;;;16.93;4.00;;;10.70;1.00;;;;;;5073576;28;20525;-86
2021/04/03 11:39:36;;;;;;;18.13;4.77;;;10.50;1.00;;;;;;5073898;28;20184;-84
2021/04/03 11:42:03;;;;;;;11.23;4.00;;;10.60;1.00;;;;;;5073814;28;20188;-82
2021/04/03 11:44:29;;;;;;;13.90;3.93;;;10.70;1.00;;;;;;5055552;28;20218;-83
2021/04/03 11:46:57;;;;;;;13.73;4.70;;;10.60;1.00;;;;;;5055959;28;20168;-79
2021/04/03 11:49:23;;;;;;;11.23;4.20;;;10.40;1.00;;;;;;5055506;28;20176;-80
2021/04/03 11:51:48;;;;;;;13.00;3.43;;;10.40;1.00;;;;;;5055666;28;20222;-82
2021/04/03 11:54:17;;;;;;;11.60;3.83;;;10.50;1.00;;;;;;5055489;28;20664;-80
2021/04/03 11:56:43;;;;;;;13.20;3.93;;;10.40;1.00;;;;;;5073786;28;20306;-82
2021/04/03 11:59:08;;;;;;;14.20;3.67;;;10.40;1.00;;;;;;5073456;28;20688;-86
2021/04/03 12:01:34;;;;;;;12.03;3.37;;;10.40;1.00;;;;;;5073838;28;20180;-83
2021/04/03 12:04:00;;;;;;;18.03;4.57;;;10.50;1.00;;;;;;5055658;28;20179;-79
2021/04/03 12:06:25;;;;;;;14.00;3.87;;;10.40;1.00;;;;;;5073328;28;20217;-79
2021/04/03 12:08:51;;;;;;;12.03;3.90;;;10.40;1.00;;;;;;5073710;28;20179;-81
2021/04/03 12:11:16;;;;;;;15.23;4.57;;;10.50;1.00;;;;;;5073329;28;20182;-86
2021/04/03 12:13:42;;;;;;;10.57;3.87;;;10.50;1.00;;;;;;5073747;28;20176;-85
2021/04/03 12:16:08;;;;;;;11.13;4.23;;;10.60;1.00;;;;;;5073464;28;20531;-84
2021/04/03 12:18:33;;;;;;;10.27;3.90;;;10.60;1.00;;;;;;5055064;28;20207;-81
2021/04/03 12:20:59;;;;;;;12.60;3.77;;;10.80;1.00;;;;;;5073009;28;20255;-84
2021/04/03 12:23:24;;;;;;;13.70;4.07;;;11.00;1.00;;;;;;5073268;28;20226;-83
2021/04/03 12:25:50;;;;;;;12.27;3.50;;;10.90;1.00;;;;;;5073025;28;20550;-85
2021/04/03 12:28:16;;;;;;;10.47;4.00;;;11.00;1.00;;;;;;5054753;28;20227;-82
2021/04/03 12:30:41;;;;;;;15.43;4.30;;;11.10;1.00;;;;;;5072932;28;20179;-84
2021/04/03 12:33:07;;;;;;;14.50;4.30;;;11.10;1.00;;;;;;5054580;28;20192;-83
2021/04/03 12:35:32;;;;;;;13.70;3.97;;;11.00;1.00;;;;;;5072521;28;20168;-81
2021/04/03 12:37:58;;;;;;;11.07;4.23;;;10.90;1.00;;;;;;5072682;28;20213;-82
2021/04/03 12:40:24;;;;;;;14.23;4.57;;;11.00;1.00;;;;;;5072555;28;20168;-82
2021/04/03 12:42:50;;;;;;;17.87;4.80;;;11.00;1.00;;;;;;5055074;28;20180;-83
2021/04/03 12:45:15;;;;;;;13.33;4.10;;;11.10;1.00;;;;;;5054629;28;20233;-81
2021/04/03 12:47:41;;;;;;;10.83;4.10;;;11.10;1.00;;;;;;5072980;28;20564;-81
2021/04/03 12:50:10;;;;;;;11.90;4.23;;;11.00;1.00;;;;;;5072541;28;20172;-83
2021/04/03 12:52:36;;;;;;;12.77;4.27;;;11.10;1.00;;;;;;5072512;28;20255;-82
2021/04/03 12:55:03;;;;;;;11.80;4.43;;;11.20;1.00;;;;;;5072810;28;20169;-82
2021/04/03 12:57:28;;;;;;;13.90;4.53;;;11.40;1.00;;;;;;5072236;28;20177;-82
2021/04/03 12:59:54;;;;;;;11.03;4.77;;;11.50;1.00;;;;;;5056418;28;20176;-81